Allagash, Maine
Current Conditions -  °F | °C
As of 4:17 PM on Monday 24 Nov 2014 (Local Time) from KFVE Reporting Station
Light Rain Light Rain  
Wind Chill: 38°   Ceiling: 200
Heat Index: 45°   Visibility: 0.75mi
Dew Point: 45°   Wind: 16mph
Humidity: 100%   Direction: 160°SSE
Pressure: 29.47"   Gusts: NA
Location:  47.1951°N, 69.2728°W
Report Text: KFVE 242117Z AUTO 16014KT 3/4SM -RA BR VV002 07/07 A2947 RMK AO2 P0000 T00720072
Loading
Personal Weather Stations






























Interactive Weather Map New forecast layout! Learn more

10-Day Weather Forecast

Advertisements
Track Severe Weather on mobile